Terminal Aerodrome Forecast
Issued by NWS

Home | Current Version | Previous Version | Graphics & Text | Print | Product List | Glossary On
Versions: 1 2 3 4 5 6 7 8 9 10 11 12 13 14 15 16 17 18 19 20 21 22 23 24 25 26 27
000
FTUS45 KGGW 251700
TAFOLF
TAF
KOLF 251721Z 2518/2618 31010KT P6SM SCT025 OVC050
      TEMPO 2518/2521 -SHRA BKN025
     FM252100 30008KT P6SM BKN050
     FM260000 VRB03KT P6SM SCT060
     FM260900 00000KT 1/4SM FG VV001
     FM261600 VRB04KT P6SM SCT030=

USA.gov is the U.S. government's official web portal to all federal, state and local government web resources and services.